C2 — ZCYD3 — position and weather

sailwx.info

Track history (hours):
 
Tides and Currents Weather Stations Pressure Air Temp Water Temp Dewpoint Dewpoint Depression Visibility Wind Speed Wind Dir Waves Ship Positions

C2

Last reported at 2016-Aug-28 13:33 UTC. Time now 2016-Aug-28 14:08 UTC.
Position N 40°08' E 002°46'.

Length 79 m; draft 3.4 m.

Type: Pleasure craft. MMSI: 319268000.

Date/timePositionNaut miles runAvg speedWind from/ knotsBaromVisibWave heightAir tempDewpointWater temp
2016-Aug-28 13:33N 40°08' E 002°46'1514.9
2016-Aug-28 12:34N 39°56' E 002°35'1514.9
2016-Aug-28 11:33N 39°44' E 002°24'17 1.2
2016-Aug-27 21:22N 39°33' E 002°40'0 0.0
2016-Aug-27 20:31N 39°33' E 002°40'0 0.0
2016-Aug-27 19:31N 39°33' E 002°40'0 0.0
2016-Aug-27 18:31N 39°33' E 002°40'0 0.0
2016-Aug-27 17:31N 39°33' E 002°40'0 0.0
2016-Aug-27 16:31N 39°33' E 002°40'0 0.0
2016-Aug-27 15:31N 39°33' E 002°40'0 0.0
2016-Aug-27 14:28N 39°33' E 002°40'0 0.0
2016-Aug-27 13:31N 39°33' E 002°40'0 0.0
2016-Aug-27 12:31N 39°33' E 002°40'0 0.0
2016-Aug-27 11:31N 39°33' E 002°40'0 0.0
2016-Aug-27 10:31N 39°33' E 002°40'0 0.0
2016-Aug-27 09:31N 39°33' E 002°40'7 7.7
2016-Aug-27 08:33N 39°27' E 002°34'1514.5
2016-Aug-27 07:33N 39°19' E 002°18'53 2.1
2016-Aug-26 06:20N 38°45' E 001°25'5 0.2
2016-Aug-25 09:32N 38°50' E 001°26'13 2.6
2016-Aug-25 04:33N 38°59' E 001°38'1413.9
2016-Aug-25 03:33N 39°10' E 001°49'1414.2
2016-Aug-25 02:33N 39°21' E 002°00'1312.8
2016-Aug-25 01:33N 39°31' E 002°12'1312.9
2016-Aug-25 00:33N 39°41' E 002°22'1313.5
2016-Aug-24 23:33N 39°47' E 002°37'3 3.1
2016-Aug-24 22:33N 39°48' E 002°41'0 0.0
2016-Aug-24 21:33N 39°48' E 002°41'0 0.0
2016-Aug-24 20:30N 39°48' E 002°41'0 0.0
2016-Aug-24 19:33N 39°48' E 002°41'0 0.0
2016-Aug-24 18:33N 39°48' E 002°41'0 0.0
2016-Aug-24 17:30N 39°48' E 002°41'4 4.4
2016-Aug-24 16:33N 39°46' E 002°36'19 0.6
2016-Aug-23 10:31N 39°31' E 002°23'9 9.9
2016-Aug-23 09:34N 39°32' E 002°35'0 0.2
2016-Aug-23 08:32N 39°32' E 002°36'0 0.0
2016-Aug-23 07:32N 39°32' E 002°36'0 0.0
2016-Aug-23 06:32N 39°32' E 002°36'0 0.0
2016-Aug-23 05:32N 39°32' E 002°36'0 0.0
2016-Aug-23 04:32N 39°32' E 002°36'0 0.0
2016-Aug-23 03:32N 39°32' E 002°36'0 0.0
2016-Aug-23 02:32N 39°32' E 002°36'0 0.0
2016-Aug-23 01:32N 39°32' E 002°36'0 0.0
2016-Aug-23 00:11N 39°32' E 002°36'0 0.0
2016-Aug-22 23:32N 39°32' E 002°36'0 0.0
2016-Aug-22 22:32N 39°32' E 002°36'0 0.0
2016-Aug-22 21:32N 39°32' E 002°36'0 0.0
2016-Aug-22 20:32N 39°32' E 002°36'0 0.0
2016-Aug-22 19:32N 39°32' E 002°36'0 0.0
2016-Aug-22 18:32N 39°32' E 002°36'0 0.0
2016-Aug-22 17:32N 39°32' E 002°36'0 0.0
2016-Aug-22 16:32N 39°32' E 002°36'0 0.0
2016-Aug-22 15:32N 39°32' E 002°36'0 0.0
2016-Aug-22 14:23N 39°32' E 002°36'0 0.0
2016-Aug-22 13:32N 39°32' E 002°36'3 2.6
2016-Aug-22 12:33N 39°34' E 002°38'0 0.0
2016-Aug-22 11:31N 39°34' E 002°38'0 0.0
2016-Aug-22 10:31N 39°34' E 002°38'0 0.0
2016-Aug-22 09:31N 39°34' E 002°38'0 0.0
2016-Aug-22 08:31N 39°34' E 002°38'0 0.0
2016-Aug-22 07:31N 39°34' E 002°38'0 0.0
2016-Aug-22 06:31N 39°34' E 002°38'0 0.0
2016-Aug-22 05:31N 39°34' E 002°38'0 0.0
2016-Aug-22 04:31N 39°34' E 002°38'0 0.0
2016-Aug-22 03:31N 39°34' E 002°38'0 0.0
2016-Aug-22 02:31N 39°34' E 002°38'0 0.0
2016-Aug-22 01:31N 39°34' E 002°38'0 0.0
2016-Aug-22 00:31N 39°34' E 002°38'0 0.0
2016-Aug-21 23:31N 39°34' E 002°38'0 0.0
2016-Aug-21 22:31N 39°34' E 002°38'0 0.0
2016-Aug-21 21:31N 39°34' E 002°38'0 0.0
2016-Aug-21 20:31N 39°34' E 002°38'0 0.0
2016-Aug-21 19:31N 39°34' E 002°38'0 0.0
2016-Aug-21 18:31N 39°34' E 002°38'0 0.0
2016-Aug-21 17:31N 39°34' E 002°38'0 0.0
2016-Aug-21 16:31N 39°34' E 002°38'0 0.0
2016-Aug-21 15:31N 39°34' E 002°38'0 0.0
2016-Aug-21 14:31N 39°34' E 002°38'0 0.0
2016-Aug-21 13:31N 39°34' E 002°38'0 0.0
2016-Aug-21 12:31N 39°34' E 002°38'0 0.0
2016-Aug-21 11:31N 39°34' E 002°38'0 0.0
2016-Aug-21 10:31N 39°34' E 002°38'0 0.0
2016-Aug-21 09:31N 39°34' E 002°38'0 0.0
2016-Aug-21 08:31N 39°34' E 002°38'0 0.0
2016-Aug-21 07:31N 39°34' E 002°38'0 0.0
2016-Aug-21 06:31N 39°34' E 002°38'0 0.0
2016-Aug-21 05:31N 39°34' E 002°38'0 0.0
2016-Aug-21 04:31N 39°34' E 002°38'0 0.0
2016-Aug-21 03:31N 39°34' E 002°38'0 0.0
2016-Aug-21 02:31N 39°34' E 002°38'0 0.0
2016-Aug-21 01:31N 39°34' E 002°38'0 0.0
2016-Aug-21 00:31N 39°34' E 002°38'0 0.0
2016-Aug-20 23:31N 39°34' E 002°38'0 0.0
2016-Aug-20 22:31N 39°34' E 002°38'0 0.0
2016-Aug-20 21:31N 39°34' E 002°38'0 0.0
2016-Aug-20 20:31N 39°34' E 002°38'0 0.0
2016-Aug-20 19:31N 39°34' E 002°38'0 0.0
2016-Aug-20 18:28N 39°34' E 002°38'0 0.0
2016-Aug-20 17:31N 39°34' E 002°38'0 0.0
2016-Aug-20 16:31N 39°34' E 002°38'0 0.0
2016-Aug-20 15:31N 39°34' E 002°38'0 0.0
2016-Aug-20 14:31N 39°34' E 002°38'0 0.0
2016-Aug-20 13:31N 39°34' E 002°38'0 0.0
2016-Aug-20 12:31N 39°34' E 002°38'0 0.0
2016-Aug-20 11:28N 39°34' E 002°38'0 0.0
2016-Aug-20 10:31N 39°34' E 002°38'0 0.0
2016-Aug-20 09:31N 39°34' E 002°38'0 0.0
2016-Aug-20 08:31N 39°34' E 002°38'0 0.0
2016-Aug-20 07:31N 39°34' E 002°38'0 0.0
2016-Aug-20 06:31N 39°34' E 002°38'0 0.0
2016-Aug-20 05:31N 39°34' E 002°38'0 0.0
2016-Aug-20 04:31N 39°34' E 002°38'0 0.0
2016-Aug-20 03:31N 39°34' E 002°38'0 0.0
2016-Aug-20 02:31N 39°34' E 002°38'0 0.0
2016-Aug-20 01:31N 39°34' E 002°38'0 0.0
2016-Aug-20 00:31N 39°34' E 002°38'0 0.0
2016-Aug-19 23:31N 39°34' E 002°38'0 0.0
2016-Aug-19 22:31N 39°34' E 002°38'0 0.0
2016-Aug-19 21:31N 39°34' E 002°38'0 0.0
2016-Aug-19 20:31N 39°34' E 002°38'0 0.0
2016-Aug-19 19:31N 39°34' E 002°38'0 0.0
2016-Aug-19 18:31N 39°34' E 002°38'0 0.0
2016-Aug-19 17:31N 39°34' E 002°38'0 0.0
2016-Aug-19 16:31N 39°34' E 002°38'0 0.0
2016-Aug-19 15:31N 39°34' E 002°38'0 0.0
2016-Aug-19 14:31N 39°34' E 002°38'0 0.0
2016-Aug-19 13:31N 39°34' E 002°38'0 0.0
2016-Aug-19 12:31N 39°34' E 002°38'0 0.0
2016-Aug-19 11:31N 39°34' E 002°38'0 0.0
2016-Aug-19 10:31N 39°34' E 002°38'0 0.0
2016-Aug-19 09:31N 39°34' E 002°38'0 0.0
2016-Aug-19 08:31N 39°34' E 002°38'0 0.0
2016-Aug-19 07:31N 39°34' E 002°38'0 0.0
2016-Aug-19 06:31N 39°34' E 002°38'0 0.0
2016-Aug-19 05:31N 39°34' E 002°38'0 0.0
2016-Aug-19 04:31N 39°34' E 002°38'0 0.0
2016-Aug-19 03:31N 39°34' E 002°38'0 0.0
2016-Aug-19 02:31N 39°34' E 002°38'0 0.0
2016-Aug-19 01:31N 39°34' E 002°38'0 0.0
2016-Aug-19 00:31N 39°34' E 002°38'0 0.0
2016-Aug-18 23:31N 39°34' E 002°38'0 0.0
2016-Aug-18 22:31N 39°34' E 002°38'0 0.0
2016-Aug-18 21:31N 39°34' E 002°38'0 0.0
2016-Aug-18 20:31N 39°34' E 002°38'0 0.0
2016-Aug-18 19:31N 39°34' E 002°38'0 0.0
2016-Aug-18 18:31N 39°34' E 002°38'0 0.0
2016-Aug-18 17:31N 39°34' E 002°38'0 0.0
2016-Aug-18 16:31N 39°34' E 002°38'0 0.0
2016-Aug-18 15:31N 39°34' E 002°38'0 0.0
2016-Aug-18 14:31N 39°34' E 002°38'  
Track history (hours):
 
Tides and Currents Weather Stations Pressure Air Temp Water Temp Dewpoint Dewpoint Depression Visibility Wind Speed Wind Dir Waves Ship Positions

C2

Last reported at 2016-Aug-28 13:33 UTC. Time now 2016-Aug-28 14:08 UTC.
Position N 40°08' E 002°46'.

Length 79 m; draft 3.4 m.

Type: Pleasure craft. MMSI: 319268000.

Date/timePositionNaut miles runAvg speedWind from/ knotsBaromVisibWave heightAir tempDewpointWater temp
2016-Aug-28 13:33N 40°08' E 002°46'1514.9
2016-Aug-28 12:34N 39°56' E 002°35'1514.9
2016-Aug-28 11:33N 39°44' E 002°24'17 1.2
2016-Aug-27 21:22N 39°33' E 002°40'0 0.0
2016-Aug-27 20:31N 39°33' E 002°40'0 0.0
2016-Aug-27 19:31N 39°33' E 002°40'0 0.0
2016-Aug-27 18:31N 39°33' E 002°40'0 0.0
2016-Aug-27 17:31N 39°33' E 002°40'0 0.0
2016-Aug-27 16:31N 39°33' E 002°40'0 0.0
2016-Aug-27 15:31N 39°33' E 002°40'0 0.0
2016-Aug-27 14:28N 39°33' E 002°40'0 0.0
2016-Aug-27 13:31N 39°33' E 002°40'0 0.0
2016-Aug-27 12:31N 39°33' E 002°40'0 0.0
2016-Aug-27 11:31N 39°33' E 002°40'0 0.0
2016-Aug-27 10:31N 39°33' E 002°40'0 0.0
2016-Aug-27 09:31N 39°33' E 002°40'7 7.7
2016-Aug-27 08:33N 39°27' E 002°34'1514.5
2016-Aug-27 07:33N 39°19' E 002°18'53 2.1
2016-Aug-26 06:20N 38°45' E 001°25'5 0.2
2016-Aug-25 09:32N 38°50' E 001°26'13 2.6
2016-Aug-25 04:33N 38°59' E 001°38'1413.9
2016-Aug-25 03:33N 39°10' E 001°49'1414.2
2016-Aug-25 02:33N 39°21' E 002°00'1312.8
2016-Aug-25 01:33N 39°31' E 002°12'1312.9
2016-Aug-25 00:33N 39°41' E 002°22'1313.5
2016-Aug-24 23:33N 39°47' E 002°37'3 3.1
2016-Aug-24 22:33N 39°48' E 002°41'0 0.0
2016-Aug-24 21:33N 39°48' E 002°41'0 0.0
2016-Aug-24 20:30N 39°48' E 002°41'0 0.0
2016-Aug-24 19:33N 39°48' E 002°41'0 0.0
2016-Aug-24 18:33N 39°48' E 002°41'0 0.0
2016-Aug-24 17:30N 39°48' E 002°41'4 4.4
2016-Aug-24 16:33N 39°46' E 002°36'19 0.6
2016-Aug-23 10:31N 39°31' E 002°23'9 9.9
2016-Aug-23 09:34N 39°32' E 002°35'0 0.2
2016-Aug-23 08:32N 39°32' E 002°36'0 0.0
2016-Aug-23 07:32N 39°32' E 002°36'0 0.0
2016-Aug-23 06:32N 39°32' E 002°36'0 0.0
2016-Aug-23 05:32N 39°32' E 002°36'0 0.0
2016-Aug-23 04:32N 39°32' E 002°36'0 0.0
2016-Aug-23 03:32N 39°32' E 002°36'0 0.0
2016-Aug-23 02:32N 39°32' E 002°36'0 0.0
2016-Aug-23 01:32N 39°32' E 002°36'0 0.0
2016-Aug-23 00:11N 39°32' E 002°36'0 0.0
2016-Aug-22 23:32N 39°32' E 002°36'0 0.0
2016-Aug-22 22:32N 39°32' E 002°36'0 0.0
2016-Aug-22 21:32N 39°32' E 002°36'0 0.0
2016-Aug-22 20:32N 39°32' E 002°36'0 0.0
2016-Aug-22 19:32N 39°32' E 002°36'0 0.0
2016-Aug-22 18:32N 39°32' E 002°36'0 0.0
2016-Aug-22 17:32N 39°32' E 002°36'0 0.0
2016-Aug-22 16:32N 39°32' E 002°36'0 0.0
2016-Aug-22 15:32N 39°32' E 002°36'0 0.0
2016-Aug-22 14:23N 39°32' E 002°36'0 0.0
2016-Aug-22 13:32N 39°32' E 002°36'3 2.6
2016-Aug-22 12:33N 39°34' E 002°38'0 0.0
2016-Aug-22 11:31N 39°34' E 002°38'0 0.0
2016-Aug-22 10:31N 39°34' E 002°38'0 0.0
2016-Aug-22 09:31N 39°34' E 002°38'0 0.0
2016-Aug-22 08:31N 39°34' E 002°38'0 0.0
2016-Aug-22 07:31N 39°34' E 002°38'0 0.0
2016-Aug-22 06:31N 39°34' E 002°38'0 0.0
2016-Aug-22 05:31N 39°34' E 002°38'0 0.0
2016-Aug-22 04:31N 39°34' E 002°38'0 0.0
2016-Aug-22 03:31N 39°34' E 002°38'0 0.0
2016-Aug-22 02:31N 39°34' E 002°38'0 0.0
2016-Aug-22 01:31N 39°34' E 002°38'0 0.0
2016-Aug-22 00:31N 39°34' E 002°38'0 0.0
2016-Aug-21 23:31N 39°34' E 002°38'0 0.0
2016-Aug-21 22:31N 39°34' E 002°38'0 0.0
2016-Aug-21 21:31N 39°34' E 002°38'0 0.0
2016-Aug-21 20:31N 39°34' E 002°38'0 0.0
2016-Aug-21 19:31N 39°34' E 002°38'0 0.0
2016-Aug-21 18:31N 39°34' E 002°38'0 0.0
2016-Aug-21 17:31N 39°34' E 002°38'0 0.0
2016-Aug-21 16:31N 39°34' E 002°38'0 0.0
2016-Aug-21 15:31N 39°34' E 002°38'0 0.0
2016-Aug-21 14:31N 39°34' E 002°38'0 0.0
2016-Aug-21 13:31N 39°34' E 002°38'0 0.0
2016-Aug-21 12:31N 39°34' E 002°38'0 0.0
2016-Aug-21 11:31N 39°34' E 002°38'0 0.0
2016-Aug-21 10:31N 39°34' E 002°38'0 0.0
2016-Aug-21 09:31N 39°34' E 002°38'0 0.0
2016-Aug-21 08:31N 39°34' E 002°38'0 0.0
2016-Aug-21 07:31N 39°34' E 002°38'0 0.0
2016-Aug-21 06:31N 39°34' E 002°38'0 0.0
2016-Aug-21 05:31N 39°34' E 002°38'0 0.0
2016-Aug-21 04:31N 39°34' E 002°38'0 0.0
2016-Aug-21 03:31N 39°34' E 002°38'0 0.0
2016-Aug-21 02:31N 39°34' E 002°38'0 0.0
2016-Aug-21 01:31N 39°34' E 002°38'0 0.0
2016-Aug-21 00:31N 39°34' E 002°38'0 0.0
2016-Aug-20 23:31N 39°34' E 002°38'0 0.0
2016-Aug-20 22:31N 39°34' E 002°38'0 0.0
2016-Aug-20 21:31N 39°34' E 002°38'0 0.0
2016-Aug-20 20:31N 39°34' E 002°38'0 0.0
2016-Aug-20 19:31N 39°34' E 002°38'0 0.0
2016-Aug-20 18:28N 39°34' E 002°38'0 0.0
2016-Aug-20 17:31N 39°34' E 002°38'0 0.0
2016-Aug-20 16:31N 39°34' E 002°38'0 0.0
2016-Aug-20 15:31N 39°34' E 002°38'0 0.0
2016-Aug-20 14:31N 39°34' E 002°38'0 0.0
2016-Aug-20 13:31N 39°34' E 002°38'0 0.0
2016-Aug-20 12:31N 39°34' E 002°38'0 0.0
2016-Aug-20 11:28N 39°34' E 002°38'0 0.0
2016-Aug-20 10:31N 39°34' E 002°38'0 0.0
2016-Aug-20 09:31N 39°34' E 002°38'0 0.0
2016-Aug-20 08:31N 39°34' E 002°38'0 0.0
2016-Aug-20 07:31N 39°34' E 002°38'0 0.0
2016-Aug-20 06:31N 39°34' E 002°38'0 0.0
2016-Aug-20 05:31N 39°34' E 002°38'0 0.0
2016-Aug-20 04:31N 39°34' E 002°38'0 0.0
2016-Aug-20 03:31N 39°34' E 002°38'0 0.0
2016-Aug-20 02:31N 39°34' E 002°38'0 0.0
2016-Aug-20 01:31N 39°34' E 002°38'0 0.0
2016-Aug-20 00:31N 39°34' E 002°38'0 0.0
2016-Aug-19 23:31N 39°34' E 002°38'0 0.0
2016-Aug-19 22:31N 39°34' E 002°38'0 0.0
2016-Aug-19 21:31N 39°34' E 002°38'0 0.0
2016-Aug-19 20:31N 39°34' E 002°38'0 0.0
2016-Aug-19 19:31N 39°34' E 002°38'0 0.0
2016-Aug-19 18:31N 39°34' E 002°38'0 0.0
2016-Aug-19 17:31N 39°34' E 002°38'0 0.0
2016-Aug-19 16:31N 39°34' E 002°38'0 0.0
2016-Aug-19 15:31N 39°34' E 002°38'0 0.0
2016-Aug-19 14:31N 39°34' E 002°38'0 0.0
2016-Aug-19 13:31N 39°34' E 002°38'0 0.0
2016-Aug-19 12:31N 39°34' E 002°38'0 0.0
2016-Aug-19 11:31N 39°34' E 002°38'0 0.0
2016-Aug-19 10:31N 39°34' E 002°38'0 0.0
2016-Aug-19 09:31N 39°34' E 002°38'0 0.0
2016-Aug-19 08:31N 39°34' E 002°38'0 0.0
2016-Aug-19 07:31N 39°34' E 002°38'0 0.0
2016-Aug-19 06:31N 39°34' E 002°38'0 0.0
2016-Aug-19 05:31N 39°34' E 002°38'0 0.0
2016-Aug-19 04:31N 39°34' E 002°38'0 0.0
2016-Aug-19 03:31N 39°34' E 002°38'0 0.0
2016-Aug-19 02:31N 39°34' E 002°38'0 0.0
2016-Aug-19 01:31N 39°34' E 002°38'0 0.0
2016-Aug-19 00:31N 39°34' E 002°38'0 0.0
2016-Aug-18 23:31N 39°34' E 002°38'0 0.0
2016-Aug-18 22:31N 39°34' E 002°38'0 0.0
2016-Aug-18 21:31N 39°34' E 002°38'0 0.0
2016-Aug-18 20:31N 39°34' E 002°38'0 0.0
2016-Aug-18 19:31N 39°34' E 002°38'0 0.0
2016-Aug-18 18:31N 39°34' E 002°38'0 0.0
2016-Aug-18 17:31N 39°34' E 002°38'0 0.0
2016-Aug-18 16:31N 39°34' E 002°38'0 0.0
2016-Aug-18 15:31N 39°34' E 002°38'0 0.0
2016-Aug-18 14:31N 39°34' E 002°38'  

Dump ship's entire track history